KBUF/BUF METAR and TAF weather

Enter ICAO airport designator
Station Type Date Time Source
KBUF METAR 2020/07/10 17:54 UTC NOAA

KBUF 101754Z 16006KT 10SM SCT055 SCT160 SCT210 SCT260 35/18 A2981 RMK AO2 SLP089 CB DSNT NW T03500178 10356 20272 58019


Station Type Date Time Source
KBUF Decoded METAR 2020/07/10 17:54 UTC NOAA

GREATER BUFFALO INTERNATIONAL AIRPORT , NY, United States (KBUF) 42-56N 078-44W 225M
Jul 10, 2020 - 01:54 PM EDT / 2020.07.10 1754 UTC
Wind: from the SSE (160 degrees) at 7 MPH (6 KT):0
Visibility: 10 mile(s):0
Sky conditions: partly cloudy
Weather: Cumulonimbus clouds observed
Temperature: 95.0 F (35.0 C)
Heat index: 97.0 F (36.1 C):1
Dew Point: 64.0 F (17.8 C)
Relative Humidity: 36%
Pressure (altimeter): 29.81 in. Hg (1009 hPa)
Pressure tendency: 0.06 inches (1.9 hPa) lower than three hours ago
ob: KBUF 101754Z 16006KT 10SM SCT055 SCT160 SCT210 SCT260 35/18 A2981 RMK AO2 SLP089 CB DSNT NW T03500178 10356 20272 58019
cycle: 18

Station Type Date Time Source
KBUF TAF 2020/07/10 18:36 UTC NOAA

TAF KBUF 101734Z 1018/1118 13006KT P6SM FEW060 FEW150
FM102000 10008KT P6SM SCT060 SCT250
FM110100 19007KT P6SM FEW070 SCT250
FM111000 22006KT P6SM SCT035 BKN200
FM111100 21007KT P6SM SCT020 BKN200

Example: see airport list